Time;durP1;ratioP1;P1;durP2;ratioP2;P2;SDS_P1;SDS_P2;PMS_P1;PMS_P2;Temp;Humidity;BMP_temperature;BMP_pressure;BME280_temperature;BME280_humidity;BME280_pressure;Samples;Min_cycle;Max_cycle;Signal;HPM_P1;HPM_P2
2021/03/17 00:00:45;;;;;;;8.40;4.32;;;;;;;2.40;55.18;97910.25;5031307;28;20029;-74
2021/03/17 00:03:11;;;;;;;10.68;4.93;;;;;;;2.29;56.05;97918.44;5031431;28;20029;-74
2021/03/17 00:05:39;;;;;;;9.63;5.13;;;;;;;2.22;56.32;97905.09;5031411;28;20103;-74
2021/03/17 00:08:05;;;;;;;9.18;5.75;;;;;;;2.14;55.99;97905.47;5031330;28;20041;-75
2021/03/17 00:10:37;;;;;;;15.90;7.22;;;;;;;2.14;57.03;97905.47;5031011;28;20036;-74
2021/03/17 00:13:04;;;;;;;9.88;5.80;;;;;;;2.27;57.25;97912.44;5025817;28;20030;-74
2021/03/17 00:15:34;;;;;;;8.40;4.88;;;;;;;2.43;57.02;97908.94;5030751;28;20056;-74
2021/03/17 00:18:00;;;;;;;7.18;4.10;;;;;;;2.47;56.80;97910.09;5031546;28;20486;-73
2021/03/17 00:20:27;;;;;;;6.82;3.63;;;;;;;2.47;56.55;97912.81;5031046;28;20041;-75
2021/03/17 00:22:52;;;;;;;7.80;4.00;;;;;;;2.28;57.13;97906.00;5031115;28;20031;-74
2021/03/17 00:25:23;;;;;;;5.28;3.70;;;;;;;2.23;58.00;97905.91;5031166;28;20017;-75
2021/03/17 00:27:49;;;;;;;8.55;3.88;;;;;;;2.17;57.78;97907.69;5031100;28;20030;-77
2021/03/17 00:30:15;;;;;;;5.55;3.28;;;;;;;2.25;58.05;97896.53;5038178;28;20048;-74
2021/03/17 00:32:40;;;;;;;4.25;2.83;;;;;;;2.35;58.53;97893.97;5039615;28;20083;-75
2021/03/17 00:35:06;;;;;;;;;;;;;;;2.38;58.29;97898.09;5050340;28;20029;-75
2021/03/17 00:37:32;;;;;;;5.85;2.92;;;;;;;2.30;58.57;97895.78;5042514;28;19964;-75
2021/03/17 00:39:57;;;;;;;;;;;;;;;2.37;58.40;97902.66;5030290;28;20037;-74
2021/03/17 00:42:22;;;;;;;5.45;3.20;;;;;;;2.34;58.61;97894.22;5031575;28;19927;-74
2021/03/17 00:44:49;;;;;;;;;;;;;;;2.18;59.10;97890.44;5042839;28;20049;-75
2021/03/17 00:47:15;;;;;;;4.55;2.58;;;;;;;2.07;59.04;97885.94;5050236;28;19923;-75
2021/03/17 00:49:41;;;;;;;5.80;2.90;;;;;;;2.15;59.38;97886.38;5031497;28;20474;-79
2021/03/17 00:52:06;;;;;;;6.10;3.40;;;;;;;2.19;59.15;97881.31;5031195;28;20560;-74
2021/03/17 00:54:32;;;;;;;4.13;2.70;;;;;;;1.97;59.41;97881.16;5031403;28;20057;-74
2021/03/17 00:56:57;;;;;;;5.30;3.08;;;;;;;2.05;58.89;97883.47;5031345;28;20077;-74
2021/03/17 00:59:22;;;;;;;4.22;2.55;;;;;;;2.22;59.46;97882.69;5031260;28;20025;-74
2021/03/17 01:01:48;;;;;;;;;;;;;;;2.04;58.81;97881.84;5031956;28;20017;-76
2021/03/17 01:04:13;;;;;;;6.15;2.60;;;;;;;1.98;59.20;97877.41;5030774;28;19917;-74
2021/03/17 01:06:38;;;;;;;;;;;;;;;1.95;59.24;97872.50;5031037;28;20487;-75
2021/03/17 01:09:04;;;;;;;4.57;2.65;;;;;;;1.94;59.23;97868.16;5029255;28;19924;-74
2021/03/17 01:11:30;;;;;;;;;;;;;;;1.96;59.50;97868.75;5031224;28;20413;-75
2021/03/17 01:13:56;;;;;;;4.35;2.30;;;;;;;1.86;59.62;97851.56;5029616;28;20066;-74
2021/03/17 01:16:21;;;;;;;;;;;;;;;1.97;58.87;97854.19;5031275;28;20498;-75
2021/03/17 01:18:46;;;;;;;5.35;2.25;;;;;;;1.88;58.66;97858.34;5034880;28;19913;-74
2021/03/17 01:21:12;;;;;;;;;;;;;;;1.79;59.45;97865.19;5049994;28;20025;-74
2021/03/17 01:23:37;;;;;;;6.68;2.55;;;;;;;1.88;58.85;97854.84;5050494;28;20460;-75
2021/03/17 01:26:02;;;;;;;;;;;;;;;1.63;59.87;97867.88;5051583;28;20033;-74
2021/03/17 01:28:28;;;;;;;3.40;2.10;;;;;;;1.70;59.69;97863.94;5052696;28;19926;-75
2021/03/17 01:30:56;;;;;;;6.00;3.92;;;;;;;1.64;60.04;97864.91;5054452;28;20116;-75
2021/03/17 01:33:27;;;;;;;10.75;3.95;;;;;;;1.69;59.79;97858.81;5055312;28;20485;-74
2021/03/17 01:35:54;;;;;;;9.77;4.50;;;;;;;1.57;59.69;97845.38;5054941;28;20135;-74
2021/03/17 01:38:21;;;;;;;4.65;3.47;;;;;;;1.48;59.97;97852.19;5060061;28;20037;-75
2021/03/17 01:40:47;;;;;;;4.75;2.80;;;;;;;1.36;59.69;97846.88;5059170;28;20094;-76
2021/03/17 01:43:13;;;;;;;7.35;4.05;;;;;;;1.30;60.21;97834.34;5056886;28;20024;-76
2021/03/17 01:45:39;;;;;;;3.40;3.08;;;;;;;1.37;59.99;97831.53;5052847;28;20060;-74
2021/03/17 01:48:06;;;;;;;6.15;3.10;;;;;;;1.28;60.66;97835.66;5054112;28;20029;-75
2021/03/17 01:50:41;;;;;;;5.68;3.25;;;;;;;1.34;59.91;97829.31;5053836;28;20040;-75
2021/03/17 01:53:11;;;;;;;4.15;2.28;;;;;;;1.31;59.99;97827.91;5053703;28;20027;-75
2021/03/17 01:55:37;;;;;;;7.75;2.67;;;;;;;1.41;59.31;97821.91;5054017;28;20025;-75
2021/03/17 01:58:03;;;;;;;5.47;2.92;;;;;;;1.50;59.33;97809.69;5053894;28;20036;-75
2021/03/17 02:00:29;;;;;;;5.55;3.65;;;;;;;1.55;58.96;97815.16;5050524;28;20426;-74
2021/03/17 02:02:55;;;;;;;;;;;;;;;1.63;58.44;97816.66;5046277;28;20462;-74
2021/03/17 02:05:23;;;;;;;3.38;2.28;;;;;;;1.73;57.75;97816.81;5054666;28;19916;-74
2021/03/17 02:07:49;;;;;;;3.17;1.92;;;;;;;1.66;57.93;97816.16;5055329;28;20041;-76
2021/03/17 02:10:18;;;;;;;5.30;2.40;;;;;;;1.73;58.29;97816.81;5059158;28;20033;-77
2021/03/17 02:13:11;;;;;;;5.07;3.45;;;;;;;1.77;58.45;97815.28;5056386;28;20025;-75
2021/03/17 02:15:57;;;;;;;6.03;3.10;;;;;;;1.46;59.36;97811.22;5054438;28;20041;-76
2021/03/17 02:18:25;;;;;;;5.95;3.28;;;;;;;1.57;59.33;97813.03;5053019;28;20037;-74
2021/03/17 02:20:59;;;;;;;5.35;3.25;;;;;;;1.45;59.78;97820.34;5052403;28;20083;-75
2021/03/17 02:23:32;;;;;;;4.28;2.78;;;;;;;1.25;60.19;97828.06;5050287;28;20030;-74
2021/03/17 02:26:38;;;;;;;4.95;2.60;;;;;;;1.14;60.45;97815.41;5052476;28;20104;-75
2021/03/17 02:29:42;;;;;;;5.30;2.53;;;;;;;1.16;59.95;97819.50;5036076;28;20069;-75
2021/03/17 02:32:09;;;;;;;3.65;2.40;;;;;;;1.14;60.18;97818.13;5031940;28;20098;-75
2021/03/17 02:34:42;;;;;;;7.85;3.22;;;;;;;1.24;60.64;97829.91;5033326;28;20021;-75
2021/03/17 02:37:12;;;;;;;6.72;2.58;;;;;;;1.11;60.56;97818.59;5038741;28;20061;-76
2021/03/17 02:39:41;;;;;;;4.70;2.75;;;;;;;1.14;61.27;97818.94;5033356;28;20029;-75
2021/03/17 02:42:07;;;;;;;9.00;3.83;;;;;;;1.13;61.59;97827.28;5036215;28;20176;-75
2021/03/17 02:44:35;;;;;;;7.25;4.47;;;;;;;1.00;62.54;97817.59;5051486;28;20166;-75
2021/03/17 02:47:01;;;;;;;4.80;2.90;;;;;;;0.87;62.65;97807.88;5052559;28;20024;-75
2021/03/17 02:49:34;;;;;;;6.95;2.60;;;;;;;0.85;63.23;97820.75;5039232;28;20029;-75
2021/03/17 02:52:01;;;;;;;6.65;3.38;;;;;;;0.81;63.88;97819.59;5031430;28;20422;-75
2021/03/17 02:54:28;;;;;;;6.30;2.97;;;;;;;0.75;64.37;97820.53;5032895;28;20029;-75
2021/03/17 02:57:03;;;;;;;6.07;3.05;;;;;;;0.69;65.18;97816.09;5032665;28;20044;-75
2021/03/17 02:59:30;;;;;;;3.53;2.60;;;;;;;0.77;64.80;97829.19;5032404;28;20170;-74
2021/03/17 03:01:59;;;;;;;5.65;3.70;;;;;;;0.53;65.37;97809.56;5065030;28;20030;-75
2021/03/17 03:04:25;;;;;;;3.85;3.00;;;;;;;0.77;65.59;97820.31;5032455;28;20084;-75
2021/03/17 03:06:54;;;;;;;5.15;2.85;;;;;;;0.85;65.22;97815.38;5049267;28;20025;-75
2021/03/17 03:09:22;;;;;;;4.78;3.38;;;;;;;0.66;65.61;97816.56;5052553;28;20035;-75
2021/03/17 03:11:50;;;;;;;5.05;2.42;;;;;;;0.66;65.86;97811.19;5052420;28;20044;-75
2021/03/17 03:14:16;;;;;;;7.40;3.85;;;;;;;0.64;66.18;97824.06;5052359;28;20021;-76
2021/03/17 03:16:43;;;;;;;5.90;3.33;;;;;;;0.61;66.64;97829.91;5052149;28;20147;-75
2021/03/17 03:19:09;;;;;;;5.82;3.67;;;;;;;0.59;66.86;97821.28;5052165;28;20067;-75
2021/03/17 03:21:35;;;;;;;5.47;2.83;;;;;;;0.64;67.03;97828.63;5052619;28;20056;-75
2021/03/17 03:24:02;;;;;;;5.53;3.10;;;;;;;0.53;67.27;97820.31;5053173;28;20053;-76
2021/03/17 03:26:29;;;;;;;2.65;2.03;;;;;;;0.39;68.58;97820.78;5053629;28;20035;-75
2021/03/17 03:28:56;;;;;;;6.07;2.65;;;;;;;0.25;69.75;97830.16;5054490;28;20036;-75
2021/03/17 03:31:23;;;;;;;3.47;2.28;;;;;;;0.19;70.03;97815.75;5059811;28;20048;-75
2021/03/17 03:33:49;;;;;;;5.43;2.83;;;;;;;0.36;70.02;97826.63;5058779;28;20033;-75
2021/03/17 03:36:14;;;;;;;3.63;2.33;;;;;;;0.18;70.24;97832.94;5051406;28;20043;-75
2021/03/17 03:38:40;;;;;;;5.72;3.33;;;;;;;0.04;71.35;97833.38;5051678;28;20053;-75
2021/03/17 03:41:06;;;;;;;7.38;3.35;;;;;;;0.05;71.68;97830.47;5036100;28;20033;-74
2021/03/17 03:43:32;;;;;;;6.63;3.33;;;;;;;0.05;71.24;97835.84;5031633;28;20103;-75
2021/03/17 03:45:58;;;;;;;7.70;3.30;;;;;;;0.06;70.80;97825.91;5031325;28;20494;-75
2021/03/17 03:48:24;;;;;;;5.22;3.22;;;;;;;0.12;70.64;97841.13;5030111;28;20036;-74
2021/03/17 03:50:51;;;;;;;5.95;2.95;;;;;;;0.06;70.74;97840.19;5049312;28;20021;-75
2021/03/17 03:53:19;;;;;;;6.85;4.00;;;;;;;0.07;70.59;97835.59;5051652;28;20100;-75
2021/03/17 03:55:58;;;;;;;4.88;3.17;;;;;;;0.10;70.40;97832.44;5051604;28;20099;-75
2021/03/17 03:58:34;;;;;;;4.82;3.25;;;;;;;0.09;70.25;97836.22;5042284;28;20052;-75
2021/03/17 04:01:05;;;;;;;7.95;3.25;;;;;;;0.12;70.61;97846.50;5031689;28;20040;-75
2021/03/17 04:03:37;;;;;;;6.45;3.47;;;;;;;0.05;69.99;97840.41;5043287;28;20029;-75
2021/03/17 04:06:04;;;;;;;6.90;3.65;;;;;;;-0.13;70.86;97844.81;5042047;28;20124;-75
2021/03/17 04:08:32;;;;;;;5.00;2.90;;;;;;;-0.18;71.32;97849.22;5031280;28;20101;-76
2021/03/17 04:11:00;;;;;;;5.47;3.33;;;;;;;-0.07;71.30;97854.66;5031560;28;20039;-74
2021/03/17 04:13:27;;;;;;;6.32;3.75;;;;;;;-0.21;71.50;97841.63;5031437;28;20029;-75
2021/03/17 04:15:58;;;;;;;8.02;3.00;;;;;;;-0.17;71.67;97837.44;5046450;28;20029;-75
2021/03/17 04:18:29;;;;;;;6.03;2.80;;;;;;;-0.05;71.61;97844.47;5051362;28;20025;-75
2021/03/17 04:21:00;;;;;;;6.55;3.50;;;;;;;-0.23;71.68;97839.19;5052476;28;20056;-76
2021/03/17 04:23:27;;;;;;;6.47;2.38;;;;;;;-0.10;71.93;97833.63;5052959;28;20093;-75
2021/03/17 04:25:54;;;;;;;5.22;3.50;;;;;;;0.03;70.86;97842.50;5049213;28;20029;-75
2021/03/17 04:28:24;;;;;;;8.95;3.05;;;;;;;-0.24;71.69;97842.09;5049965;28;20021;-76
2021/03/17 04:30:52;;;;;;;4.97;3.15;;;;;;;-0.24;72.29;97840.22;5052971;28;20032;-75
2021/03/17 04:33:19;;;;;;;7.57;3.05;;;;;;;-0.41;72.87;97841.94;5051849;28;20732;-74
2021/03/17 04:35:46;;;;;;;5.97;3.17;;;;;;;-0.23;72.97;97843.72;5049832;28;20076;-74
2021/03/17 04:38:14;;;;;;;5.75;3.08;;;;;;;-0.12;72.39;97845.63;5051165;28;20076;-74
2021/03/17 04:40:40;;;;;;;8.75;5.90;;;;;;;-0.14;72.36;97845.88;5051024;28;20055;-75
2021/03/17 04:43:06;;;;;;;7.68;5.20;;;;;;;-0.25;73.09;97848.53;5050743;28;20431;-74
2021/03/17 04:45:32;;;;;;;10.32;5.82;;;;;;;-0.11;72.79;97841.88;5050778;28;20029;-75
2021/03/17 04:47:59;;;;;;;7.43;4.22;;;;;;;-0.18;72.84;97842.00;5045191;28;20029;-75
2021/03/17 04:50:27;;;;;;;6.57;3.92;;;;;;;-0.31;73.24;97847.56;5030614;28;20029;-75
2021/03/17 04:52:53;;;;;;;14.95;3.80;;;;;;;-0.38;73.90;97830.72;5030758;28;20063;-75
2021/03/17 04:55:19;;;;;;;4.25;3.35;;;;;;;-0.34;73.82;97842.63;5030878;28;20025;-75
2021/03/17 04:57:46;;;;;;;7.38;3.95;;;;;;;-0.38;73.78;97838.78;5029943;28;20088;-75
2021/03/17 05:00:18;;;;;;;7.57;4.45;;;;;;;-0.39;73.81;97853.25;5030918;28;20572;-74
2021/03/17 05:02:56;;;;;;;6.00;3.20;;;;;;;-0.37;74.00;97848.47;5034799;28;20030;-75
2021/03/17 05:05:23;;;;;;;4.72;3.20;;;;;;;-0.23;73.81;97838.34;5034566;28;20055;-75
2021/03/17 05:07:50;;;;;;;4.97;3.03;;;;;;;-0.42;74.15;97845.66;5037878;28;20061;-75
2021/03/17 05:10:17;;;;;;;4.82;3.22;;;;;;;-0.42;74.62;97845.66;5035140;28;20029;-75
2021/03/17 05:12:43;;;;;;;5.18;2.92;;;;;;;-0.29;74.53;97853.53;5035947;28;20124;-76
2021/03/17 05:15:10;;;;;;;5.25;3.85;;;;;;;-0.17;74.01;97853.56;5035290;28;20028;-75
2021/03/17 05:17:37;;;;;;;7.53;3.47;;;;;;;-0.27;74.14;97845.22;5036861;28;20108;-75
2021/03/17 05:20:14;;;;;;;10.75;4.32;;;;;;;-0.21;74.39;97857.75;5036161;28;20033;-77
2021/03/17 05:22:42;;;;;;;6.05;2.75;;;;;;;-0.21;74.04;97849.69;5045414;28;20029;-76
2021/03/17 05:25:10;;;;;;;7.45;3.63;;;;;;;-0.08;73.78;97852.19;5052794;28;20790;-76
2021/03/17 05:27:42;;;;;;;6.05;3.95;;;;;;;0.18;73.24;97862.53;5060554;28;20029;-73
2021/03/17 05:30:11;;;;;;;7.07;4.45;;;;;;;0.15;72.26;97862.16;5051863;28;20116;-75
2021/03/17 05:32:40;;;;;;;7.45;3.97;;;;;;;0.28;71.74;97857.38;5075333;28;20021;-77
2021/03/17 05:35:08;;;;;;;5.63;4.30;;;;;;;0.30;71.13;97849.91;5051805;28;20474;-76
2021/03/17 05:37:34;;;;;;;8.10;5.15;;;;;;;0.19;71.02;97861.47;5051838;28;20084;-75
2021/03/17 05:40:03;;;;;;;9.38;5.18;;;;;;;0.34;71.10;97855.66;5053267;28;20485;-75
2021/03/17 05:42:28;;;;;;;10.15;4.25;;;;;;;0.49;70.29;97858.69;5049692;28;20044;-75
2021/03/17 05:44:54;;;;;;;7.65;4.20;;;;;;;0.48;70.57;97868.63;5051437;28;20470;-75
2021/03/17 05:47:21;;;;;;;;;;;;;;;0.49;70.18;97867.59;5052847;28;20078;-77
2021/03/17 05:49:47;;;;;;;8.25;4.57;;;;;;;0.45;70.50;97881.72;5048442;28;20372;-76
2021/03/17 05:52:16;;;;;;;9.55;5.35;;;;;;;0.70;70.29;97868.03;5049834;28;20071;-75
2021/03/17 05:54:41;;;;;;;8.52;4.95;;;;;;;0.61;70.23;97867.59;5051870;28;20067;-75
2021/03/17 05:57:07;;;;;;;10.95;5.03;;;;;;;0.52;70.45;97864.44;5049179;28;20428;-76
2021/03/17 05:59:32;;;;;;;8.27;4.72;;;;;;;0.47;70.96;97860.81;5052346;28;20409;-75
2021/03/17 06:01:58;;;;;;;8.88;5.00;;;;;;;0.65;70.80;97860.69;5052787;28;20039;-75
2021/03/17 06:04:28;;;;;;;7.50;4.80;;;;;;;0.66;69.97;97864.22;5040847;28;20040;-74
2021/03/17 06:07:00;;;;;;;9.13;4.03;;;;;;;0.66;69.15;97867.69;5038577;28;20041;-75
2021/03/17 06:09:27;;;;;;;7.93;4.60;;;;;;;0.67;68.87;97866.66;5034076;28;20029;-76
2021/03/17 06:11:55;;;;;;;9.63;4.13;;;;;;;0.74;68.88;97880.81;5034496;28;20117;-75
2021/03/17 06:14:22;;;;;;;8.73;5.03;;;;;;;0.77;69.13;97864.19;5053693;28;20025;-73
2021/03/17 06:16:57;;;;;;;10.35;4.97;;;;;;;0.92;68.76;97887.94;5053952;28;20129;-74
2021/03/17 06:19:25;;;;;;;9.23;4.97;;;;;;;1.20;68.14;97879.94;5053086;28;20036;-73
2021/03/17 06:21:52;;;;;;;18.27;10.85;;;;;;;1.66;68.24;97889.75;5055881;28;20377;-74
2021/03/17 06:24:18;;;;;;;15.23;8.63;;;;;;;1.59;66.00;97887.22;5044403;28;20025;-72
2021/03/17 06:26:46;;;;;;;7.72;4.93;;;;;;;1.92;65.12;97874.88;5041113;28;20025;-75
2021/03/17 06:29:12;;;;;;;8.40;3.95;;;;;;;1.93;63.79;97877.34;5050325;28;20059;-75
2021/03/17 06:31:39;;;;;;;6.13;3.88;;;;;;;1.85;63.54;97887.69;5048601;28;20108;-75
2021/03/17 06:34:04;;;;;;;5.18;3.42;;;;;;;1.57;64.08;97873.13;5051323;28;20369;-75
2021/03/17 06:36:30;;;;;;;6.32;3.92;;;;;;;1.59;64.44;97881.81;5047366;28;20017;-75
2021/03/17 06:39:08;;;;;;;;;;;;;;;1.98;63.47;97884.69;5052829;28;20535;-73
2021/03/17 06:41:53;;;;;;;7.35;3.67;;;;;;;2.10;62.97;97888.97;5047647;28;19916;-74
2021/03/17 06:44:24;;;;;;;9.38;4.57;;;;;;;2.34;62.79;97878.88;5052816;28;20842;-77
2021/03/17 06:47:18;;;;;;;6.72;3.70;;;;;;;2.64;61.87;97889.31;5049432;28;20025;-83
2021/03/17 06:49:48;;;;;;;9.73;5.00;;;;;;;2.61;60.56;97892.50;5047741;28;20036;-75
2021/03/17 06:52:30;;;;;;;8.52;5.28;;;;;;;2.50;61.52;97898.81;5050174;28;20452;-77
2021/03/17 06:55:16;;;;;;;8.38;4.90;;;;;;;2.96;60.17;97898.47;5050416;28;20025;-75
2021/03/17 06:57:47;;;;;;;5.20;3.43;;;;;;;3.09;58.40;97897.28;5049609;28;20031;-76
2021/03/17 07:00:20;;;;;;;3.83;2.70;;;;;;;2.93;56.25;97896.25;5050980;28;20315;-75
2021/03/17 07:02:53;;;;;;;4.50;2.28;;;;;;;3.22;55.51;97905.03;5051245;28;20025;-75
2021/03/17 07:05:19;;;;;;;3.10;2.10;;;;;;;3.32;54.36;97891.66;5048156;28;20033;-76
2021/03/17 07:07:46;;;;;;;3.22;1.85;;;;;;;4.06;52.85;97900.91;5050833;28;20037;-76
2021/03/17 07:10:12;;;;;;;6.70;2.60;;;;;;;4.16;51.91;97897.50;5050317;28;20013;-75
2021/03/17 07:12:37;;;;;;;4.57;2.72;;;;;;;4.94;50.73;97899.53;5050119;28;20028;-75
2021/03/17 07:15:11;;;;;;;3.85;1.88;;;;;;;5.27;49.40;97893.75;5050356;28;20052;-76
2021/03/17 07:17:36;;;;;;;3.30;1.92;;;;;;;5.63;48.08;97902.06;5049578;28;20025;-77
2021/03/17 07:20:05;;;;;;;2.70;2.45;;;;;;;5.67;46.63;97893.13;5055125;28;20032;-76
2021/03/17 07:22:31;;;;;;;3.75;3.08;;;;;;;5.55;47.45;97906.09;5054665;28;20029;-75
2021/03/17 07:25:04;;;;;;;6.10;2.65;;;;;;;5.40;47.78;97904.13;5048311;28;20043;-75
2021/03/17 07:27:32;;;;;;;5.53;2.33;;;;;;;6.19;47.01;97895.78;5044984;28;20025;-74
2021/03/17 07:29:57;;;;;;;5.30;2.88;;;;;;;6.64;44.81;97896.91;5050534;28;20395;-74
2021/03/17 07:32:24;;;;;;;5.55;2.70;;;;;;;7.55;42.62;97898.41;5049749;28;20032;-74
2021/03/17 07:34:49;;;;;;;5.13;3.13;;;;;;;7.61;42.25;97896.50;5050079;28;20021;-75
2021/03/17 07:37:15;;;;;;;7.32;2.67;;;;;;;7.47;43.22;97898.16;5049099;28;20396;-78
2021/03/17 07:39:42;;;;;;;4.80;2.47;;;;;;;7.53;42.54;97891.59;5050085;28;20039;-75
2021/03/17 07:42:13;;;;;;;5.90;3.20;;;;;;;7.84;42.05;97889.56;5050229;28;20075;-76
2021/03/17 07:44:42;;;;;;;5.80;2.20;;;;;;;9.41;38.97;97887.31;5050065;28;20047;-75
2021/03/17 07:47:10;;;;;;;3.03;2.38;;;;;;;10.38;36.36;97884.22;5046661;28;20036;-76
2021/03/17 07:49:38;;;;;;;4.80;2.58;;;;;;;11.43;34.20;97889.88;5049610;28;20470;-76
2021/03/17 07:52:05;;;;;;;7.28;3.08;;;;;;;12.69;32.80;97895.44;5049616;28;20059;-75
2021/03/17 07:54:34;;;;;;;6.15;3.20;;;;;;;13.92;31.06;97879.06;5049501;28;20543;-77
2021/03/17 07:57:04;;;;;;;4.07;2.15;;;;;;;13.88;29.77;97886.31;5048369;28;20021;-73
2021/03/17 07:59:29;;;;;;;3.22;2.13;;;;;;;13.29;29.89;97879.41;5047324;28;20025;-73
2021/03/17 08:01:56;;;;;;;4.28;1.90;;;;;;;15.15;28.12;97882.41;5050680;28;20561;-73
2021/03/17 08:04:30;;;;;;;2.28;1.77;;;;;;;14.48;27.89;97880.97;5050533;28;20029;-73
2021/03/17 08:06:58;;;;;;;4.18;2.70;;;;;;;13.66;29.90;97869.88;5050972;28;20033;-76
2021/03/17 08:09:24;;;;;;;5.82;2.92;;;;;;;14.86;28.31;97878.41;5052816;28;20123;-74
2021/03/17 08:11:52;;;;;;;4.10;2.53;;;;;;;13.71;29.95;97874.44;5050402;28;20139;-74
2021/03/17 08:14:18;;;;;;;8.70;2.20;;;;;;;14.19;28.95;97875.22;5049127;28;20041;-73
2021/03/17 08:16:44;;;;;;;7.47;2.42;;;;;;;15.22;27.90;97877.22;5050639;28;20064;-74
2021/03/17 08:19:30;;;;;;;5.80;2.72;;;;;;;16.46;25.83;97872.97;5048499;28;20056;-75
2021/03/17 08:22:00;;;;;;;3.05;2.33;;;;;;;16.59;25.35;97871.13;5050153;28;20029;-74
2021/03/17 08:24:41;;;;;;;2.15;1.70;;;;;;;16.08;25.03;97867.50;5050115;28;20021;-76
2021/03/17 08:27:06;;;;;;;1.50;1.40;;;;;;;14.62;26.80;97856.06;5050587;28;20028;-75
2021/03/17 08:29:36;;;;;;;3.88;1.58;;;;;;;16.11;24.73;97862.47;5050279;28;20067;-73
2021/03/17 08:32:02;;;;;;;2.38;1.67;;;;;;;16.09;25.15;97857.28;5050639;28;20039;-74
2021/03/17 08:34:29;;;;;;;3.10;1.60;;;;;;;16.21;24.72;97865.66;5048440;28;20057;-73
2021/03/17 08:37:13;;;;;;;5.28;1.80;;;;;;;15.95;25.56;97863.03;5050233;28;20486;-75
2021/03/17 08:39:40;;;;;;;3.17;1.80;;;;;;;17.79;23.59;97853.38;5050076;28;20041;-74
2021/03/17 08:42:29;;;;;;;2.88;1.85;;;;;;;17.56;23.26;97844.69;5050305;28;20099;-74
2021/03/17 08:44:57;;;;;;;4.97;2.55;;;;;;;18.75;21.74;97837.81;5049762;28;20092;-73
2021/03/17 08:47:43;;;;;;;2.45;1.70;;;;;;;16.58;24.02;97841.88;5048855;28;20045;-74
2021/03/17 08:50:14;;;;;;;2.20;2.00;;;;;;;17.46;23.43;97838.75;5051459;28;20029;-76
2021/03/17 08:52:44;;;;;;;4.10;2.08;;;;;;;17.10;23.81;97826.44;5052773;28;20043;-74
2021/03/17 08:55:18;;;;;;;4.95;1.80;;;;;;;17.28;23.80;97829.03;5050043;28;20021;-74
2021/03/17 08:57:52;;;;;;;2.53;1.35;;;;;;;17.30;23.34;97823.94;5050043;28;20484;-73
2021/03/17 09:01:00;;;;;;;2.47;1.23;;;;;;;14.69;25.34;97830.78;5050565;28;20389;-75
2021/03/17 09:03:31;;;;;;;;;;;;;;;14.87;25.67;97832.38;5040349;28;20037;-79
2021/03/17 09:06:24;;;;;;;2.00;1.25;;;;;;;15.41;24.88;97833.56;5055556;28;19924;-75
2021/03/17 09:09:15;;;;;;;1.10;0.90;;;;;;;15.14;25.56;97820.16;5051145;28;20040;-75
2021/03/17 09:11:42;;;;;;;1.73;1.05;;;;;;;15.15;24.91;97822.63;5050809;28;20025;-75
2021/03/17 09:14:08;;;;;;;0.88;0.68;;;;;;;15.92;24.57;97819.56;5051906;28;20025;-77
2021/03/17 09:17:08;;;;;;;3.17;1.15;;;;;;;17.01;23.09;97817.41;5050615;28;20515;-75
2021/03/17 09:20:05;;;;;;;0.82;0.50;;;;;;;19.00;20.66;97825.47;5049673;28;20025;-75
2021/03/17 09:22:40;;;;;;;2.83;1.25;;;;;;;18.17;21.07;97817.00;5040886;28;20397;-73
2021/03/17 09:25:14;;;;;;;2.13;1.25;;;;;;;18.48;20.17;97813.63;5049751;28;20036;-75
2021/03/17 09:27:48;;;;;;;1.95;0.95;;;;;;;17.64;21.23;97824.38;5048404;28;20547;-73
2021/03/17 09:30:15;;;;;;;1.17;0.75;;;;;;;20.43;19.12;97825.16;5049919;28;20056;-74
2021/03/17 09:32:41;;;;;;;1.15;0.70;;;;;;;18.83;20.18;97820.22;5050098;28;20033;-76
2021/03/17 09:35:08;;;;;;;1.33;1.08;;;;;;;19.86;20.14;97825.78;5049240;28;20086;-75
2021/03/17 09:37:33;;;;;;;2.35;1.20;;;;;;;20.46;19.06;97821.66;5049484;28;20103;-73
2021/03/17 09:39:59;;;;;;;3.78;1.20;;;;;;;19.33;20.64;97811.28;5049686;28;20029;-75
2021/03/17 09:42:24;;;;;;;3.13;1.13;;;;;;;18.26;21.11;97808.59;5049882;28;20028;-74
2021/03/17 09:44:57;;;;;;;3.25;1.02;;;;;;;16.25;22.85;97811.41;5049385;28;20485;-75
2021/03/17 09:47:29;;;;;;;0.85;0.85;;;;;;;16.42;23.39;97810.44;5050736;28;20025;-74
2021/03/17 09:49:55;;;;;;;5.28;1.88;;;;;;;18.57;20.48;97811.53;5053054;28;20099;-75
2021/03/17 09:52:20;;;;;;;2.78;1.10;;;;;;;16.78;22.10;97805.16;5053280;28;20481;-74
2021/03/17 09:54:46;;;;;;;1.83;0.90;;;;;;;15.85;22.96;97804.69;5053109;28;20074;-74
2021/03/17 09:57:11;;;;;;;0.82;0.57;;;;;;;12.87;24.26;97786.59;5052949;28;20021;-75
2021/03/17 09:59:38;;;;;;;2.17;0.70;;;;;;;14.48;22.77;97778.31;5052075;28;20108;-74
2021/03/17 10:02:05;;;;;;;2.05;0.88;;;;;;;16.01;20.95;97776.16;5053504;28;20021;-74
2021/03/17 10:04:49;;;;;;;1.63;0.98;;;;;;;16.43;20.63;97776.19;5051343;28;20029;-75
2021/03/17 10:07:21;;;;;;;1.02;0.50;;;;;;;16.79;19.82;97781.88;5052881;28;20522;-75
2021/03/17 10:09:47;;;;;;;1.33;0.63;;;;;;;17.13;19.91;97778.75;5052601;28;20477;-74
2021/03/17 10:12:17;;;;;;;0.85;0.45;;;;;;;19.27;17.71;97784.97;5053009;28;20119;-76
2021/03/17 10:14:53;;;;;;;0.80;0.50;;;;;;;17.48;18.75;97781.13;5052504;28;20435;-75
2021/03/17 10:17:21;;;;;;;0.47;0.20;;;;;;;15.57;20.27;97784.22;5052679;28;20080;-74
2021/03/17 10:19:49;;;;;;;0.47;0.40;;;;;;;15.04;21.41;97774.50;5051295;28;20028;-75
2021/03/17 10:22:16;;;;;;;0.75;0.38;;;;;;;15.58;21.24;97789.41;5052835;28;20021;-74
2021/03/17 10:24:45;;;;;;;0.50;0.50;;;;;;;15.21;20.51;97782.72;5052254;28;20040;-74
2021/03/17 10:27:13;;;;;;;0.98;0.50;;;;;;;15.44;20.57;97764.78;5050856;28;20021;-73
2021/03/17 10:29:40;;;;;;;0.22;0.22;;;;;;;14.69;21.21;97760.00;5050944;28;20028;-75
2021/03/17 10:32:07;;;;;;;0.80;0.43;;;;;;;14.59;21.11;97754.03;5052844;28;20416;-74
2021/03/17 10:34:33;;;;;;;0.50;0.40;;;;;;;15.37;20.51;97752.66;5052480;28;20029;-74
2021/03/17 10:36:59;;;;;;;1.10;0.50;;;;;;;14.59;21.34;97754.03;5052340;28;20025;-76
2021/03/17 10:39:35;;;;;;;0.45;0.45;;;;;;;15.37;20.18;97755.41;5034265;28;20524;-75
2021/03/17 10:42:03;;;;;;;0.30;0.10;;;;;;;15.79;20.25;97754.41;5051999;28;20045;-75
2021/03/17 10:44:31;;;;;;;0.88;0.77;;;;;;;15.63;20.12;97750.59;5050775;28;20112;-75
2021/03/17 10:46:56;;;;;;;0.20;0.20;;;;;;;14.48;21.15;97746.09;5052177;28;20033;-75
2021/03/17 10:49:21;;;;;;;0.80;0.45;;;;;;;15.14;20.17;97740.25;5052314;28;20029;-76
2021/03/17 10:51:57;;;;;;;0.38;0.30;;;;;;;15.54;20.10;97741.56;5050944;28;20032;-74
2021/03/17 10:54:34;;;;;;;0.98;0.40;;;;;;;16.59;19.77;97739.38;5052306;28;20028;-76
2021/03/17 10:57:02;;;;;;;0.57;0.50;;;;;;;16.57;19.35;97735.34;5051765;28;20078;-73
2021/03/17 10:59:31;;;;;;;1.50;0.47;;;;;;;18.48;17.85;97736.84;5051647;28;20036;-74
2021/03/17 11:02:22;;;;;;;1.50;0.65;;;;;;;18.96;16.97;97726.69;5051872;28;20048;-75
2021/03/17 11:05:09;;;;;;;0.10;0.10;;;;;;;19.40;16.73;97730.25;5049818;28;20089;-74
2021/03/17 11:07:47;;;;;;;2.40;0.70;;;;;;;17.78;17.96;97732.75;5051591;28;20385;-75
2021/03/17 11:10:33;;;;;;;0.32;0.30;;;;;;;16.59;20.06;97733.84;5051300;28;20501;-75
2021/03/17 11:13:00;;;;;;;;;;;;;;;13.40;22.90;97745.34;5051752;28;20025;-74
2021/03/17 11:15:31;;;;;;;0.38;0.30;;;;;;;12.83;21.72;97731.50;5051685;28;20008;-75
2021/03/17 11:17:58;;;;;;;0.75;0.52;;;;;;;13.31;20.76;97725.28;5050860;28;20032;-75
2021/03/17 11:20:24;;;;;;;0.10;0.10;;;;;;;12.86;20.79;97716.31;5050253;28;20389;-76
2021/03/17 11:22:50;;;;;;;0.85;0.40;;;;;;;12.78;21.51;97717.09;5051665;28;20033;-75
2021/03/17 11:25:22;;;;;;;0.50;0.30;;;;;;;12.33;22.14;97716.34;5051542;28;20546;-74
2021/03/17 11:27:49;;;;;;;1.05;1.05;;;;;;;12.40;22.19;97708.50;5051518;28;20053;-75
2021/03/17 11:30:15;;;;;;;0.65;0.47;;;;;;;12.50;22.07;97710.94;5051487;28;20033;-75
2021/03/17 11:32:40;;;;;;;0.38;0.38;;;;;;;12.61;21.77;97703.28;5051439;28;20036;-75
2021/03/17 11:35:07;;;;;;;1.58;0.30;;;;;;;12.64;21.74;97706.22;5051197;28;20500;-74
2021/03/17 11:37:33;;;;;;;0.40;0.40;;;;;;;12.40;21.72;97704.94;5051207;28;20045;-75
2021/03/17 11:39:59;;;;;;;1.98;0.85;;;;;;;12.00;21.91;97710.28;5051010;28;20599;-76
2021/03/17 11:42:24;;;;;;;2.45;1.25;;;;;;;11.19;23.20;97703.03;5051810;28;20033;-74
2021/03/17 11:44:50;;;;;;;1.65;0.68;;;;;;;11.81;23.05;97704.16;5050792;28;20025;-75
2021/03/17 11:47:15;;;;;;;0.68;0.63;;;;;;;12.09;23.37;97699.41;5051516;28;20115;-79
2021/03/17 11:49:41;;;;;;;1.13;0.90;;;;;;;12.27;22.86;97695.66;5056153;28;20033;-75
2021/03/17 11:52:07;;;;;;;1.70;1.02;;;;;;;12.58;22.44;97701.97;5051866;28;20032;-75